sensor_id;sensor_type;location;lat;lon;timestamp;pressure;altitude;pressure_sealevel;temperature;humidity
48606;BME280;8482;54.396;18.590;2022-09-09T00:02:08;101246.06;;;16.55;52.46
48606;BME280;8482;54.396;18.590;2022-09-09T00:04:39;101249.59;;;16.55;52.43
48606;BME280;8482;54.396;18.590;2022-09-09T00:07:21;101247.91;;;16.54;52.57
48606;BME280;8482;54.396;18.590;2022-09-09T00:10:05;101241.03;;;16.52;52.56
48606;BME280;8482;54.396;18.590;2022-09-09T00:16:04;101235.00;;;16.40;52.84
48606;BME280;8482;54.396;18.590;2022-09-09T00:18:50;101235.41;;;16.45;52.87
48606;BME280;8482;54.396;18.590;2022-09-09T00:21:20;101237.53;;;16.42;52.95
48606;BME280;8482;54.396;18.590;2022-09-09T00:23:53;101235.88;;;16.41;52.90
48606;BME280;8482;54.396;18.590;2022-09-09T00:26:47;101236.16;;;16.37;52.91
48606;BME280;8482;54.396;18.590;2022-09-09T00:29:35;101241.34;;;16.39;52.92
48606;BME280;8482;54.396;18.590;2022-09-09T00:32:17;101230.66;;;16.39;52.92
48606;BME280;8482;54.396;18.590;2022-09-09T00:34:56;101230.66;;;16.39;52.93
48606;BME280;8482;54.396;18.590;2022-09-09T00:37:25;101226.28;;;16.38;52.83
48606;BME280;8482;54.396;18.590;2022-09-09T00:39:55;101229.13;;;16.36;52.79
48606;BME280;8482;54.396;18.590;2022-09-09T00:42:42;101215.84;;;16.35;52.41
48606;BME280;8482;54.396;18.590;2022-09-09T00:47:50;101218.41;;;16.36;52.33
48606;BME280;8482;54.396;18.590;2022-09-09T00:56:20;101224.47;;;16.38;52.03
48606;BME280;8482;54.396;18.590;2022-09-09T01:04:52;101213.88;;;16.37;51.89
48606;BME280;8482;54.396;18.590;2022-09-09T01:07:18;101220.91;;;16.38;51.86
48606;BME280;8482;54.396;18.590;2022-09-09T01:10:06;101220.09;;;16.37;51.69
48606;BME280;8482;54.396;18.590;2022-09-09T01:12:42;101214.75;;;16.37;51.75
48606;BME280;8482;54.396;18.590;2022-09-09T01:15:34;101220.91;;;16.38;51.66
48606;BME280;8482;54.396;18.590;2022-09-09T01:18:13;101214.75;;;16.37;51.95
48606;BME280;8482;54.396;18.590;2022-09-09T01:24:29;101213.88;;;16.37;51.50
48606;BME280;8482;54.396;18.590;2022-09-09T01:27:05;101209.50;;;16.36;51.43
48606;BME280;8482;54.396;18.590;2022-09-09T01:29:32;101222.78;;;16.37;51.54
48606;BME280;8482;54.396;18.590;2022-09-09T01:32:03;101218.25;;;16.38;51.66
48606;BME280;8482;54.396;18.590;2022-09-09T01:34:47;101214.75;;;16.37;51.51
48606;BME280;8482;54.396;18.590;2022-09-09T01:37:13;101219.22;;;16.37;51.62
48606;BME280;8482;54.396;18.590;2022-09-09T01:39:43;101209.22;;;16.39;51.51
48606;BME280;8482;54.396;18.590;2022-09-09T01:42:14;101215.56;;;16.38;51.41
48606;BME280;8482;54.396;18.590;2022-09-09T01:44:41;101210.09;;;16.39;51.45
48606;BME280;8482;54.396;18.590;2022-09-09T01:47:07;101215.44;;;16.39;51.23
48606;BME280;8482;54.396;18.590;2022-09-09T01:49:33;101213.88;;;16.37;51.44
48606;BME280;8482;54.396;18.590;2022-09-09T01:51:59;101212.75;;;16.39;51.61
48606;BME280;8482;54.396;18.590;2022-09-09T01:54:29;101209.22;;;16.39;51.68
48606;BME280;8482;54.396;18.590;2022-09-09T01:57:27;101210.22;;;16.38;51.74
48606;BME280;8482;54.396;18.590;2022-09-09T02:00:07;101211.19;;;16.37;51.72
48606;BME280;8482;54.396;18.590;2022-09-09T02:03:49;101205.03;;;16.36;51.61
48606;BME280;8482;54.396;18.590;2022-09-09T02:08:49;101209.50;;;16.36;51.70
48606;BME280;8482;54.396;18.590;2022-09-09T02:11:23;101202.63;;;16.33;51.56
48606;BME280;8482;54.396;18.590;2022-09-09T02:14:27;101206.00;;;16.35;51.48
48606;BME280;8482;54.396;18.590;2022-09-09T02:16:58;101203.63;;;16.32;51.59
48606;BME280;8482;54.396;18.590;2022-09-09T02:19:42;101208.97;;;16.32;51.87
48606;BME280;8482;54.396;18.590;2022-09-09T02:22:12;101208.84;;;16.34;52.05
48606;BME280;8482;54.396;18.590;2022-09-09T02:24:40;101207.16;;;16.33;51.83
48606;BME280;8482;54.396;18.590;2022-09-09T02:27:08;101208.84;;;16.34;51.83
48606;BME280;8482;54.396;18.590;2022-09-09T02:29:40;101210.66;;;16.33;51.91
48606;BME280;8482;54.396;18.590;2022-09-09T02:32:12;101204.59;;;16.31;52.01
48606;BME280;8482;54.396;18.590;2022-09-09T02:34:45;101202.91;;;16.30;51.99
48606;BME280;8482;54.396;18.590;2022-09-09T02:37:18;101203.06;;;16.29;52.09
48606;BME280;8482;54.396;18.590;2022-09-09T02:39:44;101211.09;;;16.29;51.74
48606;BME280;8482;54.396;18.590;2022-09-09T02:42:10;101214.63;;;16.29;51.75
48606;BME280;8482;54.396;18.590;2022-09-09T02:44:36;101212.94;;;16.28;51.89
48606;BME280;8482;54.396;18.590;2022-09-09T02:47:38;101211.09;;;16.29;51.89
48606;BME280;8482;54.396;18.590;2022-09-09T02:53:00;101211.28;;;16.27;52.10
48606;BME280;8482;54.396;18.590;2022-09-09T02:58:10;101206.03;;;16.26;51.76
48606;BME280;8482;54.396;18.590;2022-09-09T03:00:38;101216.06;;;16.23;51.82
48606;BME280;8482;54.396;18.590;2022-09-09T03:03:06;101218.72;;;16.23;51.90
48606;BME280;8482;54.396;18.590;2022-09-09T03:05:32;101210.00;;;16.21;51.93
48606;BME280;8482;54.396;18.590;2022-09-09T03:07:58;101220.69;;;16.21;52.15
48606;BME280;8482;54.396;18.590;2022-09-09T03:10:24;101218.88;;;16.22;52.12
48606;BME280;8482;54.396;18.590;2022-09-09T03:12:50;101216.50;;;16.19;53.44
48606;BME280;8482;54.396;18.590;2022-09-09T03:15:16;101227.91;;;16.21;54.59
48606;BME280;8482;54.396;18.590;2022-09-09T03:17:42;101232.72;;;16.17;55.70
48606;BME280;8482;54.396;18.590;2022-09-09T03:20:08;101239.06;;;16.16;56.80
48606;BME280;8482;54.396;18.590;2022-09-09T03:22:35;101247.38;;;16.13;57.19
48606;BME280;8482;54.396;18.590;2022-09-09T03:25:00;101255.84;;;16.08;57.94
48606;BME280;8482;54.396;18.590;2022-09-09T03:27:28;101245.56;;;16.04;58.71
48606;BME280;8482;54.396;18.590;2022-09-09T03:29:54;101253.19;;;15.99;59.64
48606;BME280;8482;54.396;18.590;2022-09-09T03:32:21;101244.75;;;15.93;60.86
48606;BME280;8482;54.396;18.590;2022-09-09T03:34:48;101261.38;;;15.87;61.98
48606;BME280;8482;54.396;18.590;2022-09-09T03:37:16;101263.59;;;15.82;63.09
48606;BME280;8482;54.396;18.590;2022-09-09T03:39:43;101266.31;;;15.72;64.10
48606;BME280;8482;54.396;18.590;2022-09-09T03:42:12;101265.03;;;15.67;65.01
48606;BME280;8482;54.396;18.590;2022-09-09T03:44:40;101277.28;;;15.59;65.73
48606;BME280;8482;54.396;18.590;2022-09-09T03:47:07;101273.50;;;15.52;66.18
48606;BME280;8482;54.396;18.590;2022-09-09T03:49:33;101271.38;;;15.46;67.13
48606;BME280;8482;54.396;18.590;2022-09-09T03:51:59;101266.00;;;15.36;68.42
48606;BME280;8482;54.396;18.590;2022-09-09T03:54:26;101266.72;;;15.28;68.31
48606;BME280;8482;54.396;18.590;2022-09-09T03:56:53;101270.78;;;15.23;69.01
48606;BME280;8482;54.396;18.590;2022-09-09T03:59:19;101274.19;;;15.15;69.63
48606;BME280;8482;54.396;18.590;2022-09-09T04:01:46;101270.50;;;15.06;70.01
48606;BME280;8482;54.396;18.590;2022-09-09T04:04:12;101268.50;;;14.98;71.17
48606;BME280;8482;54.396;18.590;2022-09-09T04:06:38;101278.75;;;14.93;71.57
48606;BME280;8482;54.396;18.590;2022-09-09T04:09:04;101277.47;;;14.88;72.05
48606;BME280;8482;54.396;18.590;2022-09-09T04:11:30;101273.53;;;14.82;72.28
48606;BME280;8482;54.396;18.590;2022-09-09T04:13:55;101275.91;;;14.75;72.68
48606;BME280;8482;54.396;18.590;2022-09-09T04:16:21;101282.63;;;14.69;72.95
48606;BME280;8482;54.396;18.590;2022-09-09T04:18:47;101266.13;;;14.64;73.59
48606;BME280;8482;54.396;18.590;2022-09-09T04:21:14;101269.09;;;14.61;73.88
48606;BME280;8482;54.396;18.590;2022-09-09T04:23:40;101270.47;;;14.55;74.08
48606;BME280;8482;54.396;18.590;2022-09-09T04:26:06;101277.88;;;14.52;74.21
48606;BME280;8482;54.396;18.590;2022-09-09T04:28:35;101284.34;;;14.49;75.00
48606;BME280;8482;54.396;18.590;2022-09-09T04:31:11;101276.75;;;14.45;75.50
48606;BME280;8482;54.396;18.590;2022-09-09T04:33:40;101278.84;;;14.41;75.70
48606;BME280;8482;54.396;18.590;2022-09-09T04:36:06;101271.94;;;14.38;76.12
48606;BME280;8482;54.396;18.590;2022-09-09T04:38:32;101284.69;;;14.35;76.41
48606;BME280;8482;54.396;18.590;2022-09-09T04:40:58;101277.81;;;14.32;76.29
48606;BME280;8482;54.396;18.590;2022-09-09T04:43:24;101278.22;;;14.28;76.59
48606;BME280;8482;54.396;18.590;2022-09-09T04:45:53;101280.16;;;14.25;77.03
48606;BME280;8482;54.396;18.590;2022-09-09T04:48:19;101281.41;;;14.21;77.23
48606;BME280;8482;54.396;18.590;2022-09-09T04:51:01;101286.03;;;14.19;77.49
48606;BME280;8482;54.396;18.590;2022-09-09T04:53:28;101284.59;;;14.15;77.92
48606;BME280;8482;54.396;18.590;2022-09-09T04:56:12;101288.25;;;14.14;78.05
48606;BME280;8482;54.396;18.590;2022-09-09T04:58:40;101290.19;;;14.12;78.32
48606;BME280;8482;54.396;18.590;2022-09-09T05:01:16;101294.81;;;14.10;78.75
48606;BME280;8482;54.396;18.590;2022-09-09T05:03:43;101297.63;;;14.08;79.07
48606;BME280;8482;54.396;18.590;2022-09-09T05:06:14;101297.88;;;14.05;79.11
48606;BME280;8482;54.396;18.590;2022-09-09T05:08:42;101304.19;;;14.04;78.78
48606;BME280;8482;54.396;18.590;2022-09-09T05:13:50;101309.78;;;14.01;79.33
48606;BME280;8482;54.396;18.590;2022-09-09T05:16:18;101307.25;;;14.00;79.64
48606;BME280;8482;54.396;18.590;2022-09-09T05:18:44;101316.09;;;14.00;79.95
48606;BME280;8482;54.396;18.590;2022-09-09T05:21:16;101311.97;;;13.96;79.87
48606;BME280;8482;54.396;18.590;2022-09-09T05:23:43;101317.31;;;13.96;79.85
48606;BME280;8482;54.396;18.590;2022-09-09T05:26:14;101313.97;;;13.94;80.09
48606;BME280;8482;54.396;18.590;2022-09-09T05:28:40;101315.91;;;13.92;80.49
48606;BME280;8482;54.396;18.590;2022-09-09T05:31:09;101313.22;;;13.92;80.80
48606;BME280;8482;54.396;18.590;2022-09-09T05:33:37;101308.16;;;13.89;80.86
48606;BME280;8482;54.396;18.590;2022-09-09T05:36:09;101303.69;;;13.89;81.26
48606;BME280;8482;54.396;18.590;2022-09-09T05:38:36;101302.69;;;13.90;81.11
48606;BME280;8482;54.396;18.590;2022-09-09T05:41:03;101307.31;;;13.88;81.15
48606;BME280;8482;54.396;18.590;2022-09-09T05:43:29;101306.47;;;13.88;81.20
48606;BME280;8482;54.396;18.590;2022-09-09T05:46:09;101316.16;;;13.89;81.10
48606;BME280;8482;54.396;18.590;2022-09-09T05:48:38;101315.44;;;13.87;81.20
48606;BME280;8482;54.396;18.590;2022-09-09T05:51:08;101319.22;;;13.84;80.89
48606;BME280;8482;54.396;18.590;2022-09-09T05:53:35;101319.22;;;13.84;80.83
48606;BME280;8482;54.396;18.590;2022-09-09T05:56:09;101323.00;;;13.82;80.99
48606;BME280;8482;54.396;18.590;2022-09-09T05:58:40;101320.44;;;13.80;80.47
48606;BME280;8482;54.396;18.590;2022-09-09T06:01:17;101316.34;;;13.76;80.82
48606;BME280;8482;54.396;18.590;2022-09-09T06:03:45;101324.47;;;13.74;80.54
48606;BME280;8482;54.396;18.590;2022-09-09T06:06:18;101330.91;;;13.72;80.25
48606;BME280;8482;54.396;18.590;2022-09-09T06:08:46;101336.22;;;13.72;80.62
48606;BME280;8482;54.396;18.590;2022-09-09T06:11:25;101330.91;;;13.72;80.48
48606;BME280;8482;54.396;18.590;2022-09-09T06:13:52;101326.69;;;13.69;80.81
48606;BME280;8482;54.396;18.590;2022-09-09T06:16:23;101323.53;;;13.64;80.17
48606;BME280;8482;54.396;18.590;2022-09-09T06:18:49;101335.03;;;13.64;80.37
48606;BME280;8482;54.396;18.590;2022-09-09T06:21:19;101329.84;;;13.63;80.66
48606;BME280;8482;54.396;18.590;2022-09-09T06:23:46;101336.38;;;13.59;80.41
48606;BME280;8482;54.396;18.590;2022-09-09T06:26:22;101346.09;;;13.60;80.39
48606;BME280;8482;54.396;18.590;2022-09-09T06:28:51;101342.59;;;13.59;80.78
48606;BME280;8482;54.396;18.590;2022-09-09T06:31:22;101343.41;;;13.60;80.77
48606;BME280;8482;54.396;18.590;2022-09-09T06:33:50;101342.84;;;13.56;80.38
48606;BME280;8482;54.396;18.590;2022-09-09T06:36:26;101347.44;;;13.54;79.96
48606;BME280;8482;54.396;18.590;2022-09-09T06:38:53;101343.22;;;13.52;79.98
48606;BME280;8482;54.396;18.590;2022-09-09T06:41:21;101346.13;;;13.48;79.93
48606;BME280;8482;54.396;18.590;2022-09-09T06:43:48;101337.66;;;13.43;80.22
48606;BME280;8482;54.396;18.590;2022-09-09T06:46:22;101348.06;;;13.46;79.83
48606;BME280;8482;54.396;18.590;2022-09-09T06:48:48;101338.50;;;13.44;79.92
48606;BME280;8482;54.396;18.590;2022-09-09T06:51:18;101346.66;;;13.42;79.61
48606;BME280;8482;54.396;18.590;2022-09-09T06:53:47;101338.84;;;13.39;79.81
48606;BME280;8482;54.396;18.590;2022-09-09T06:58:42;101353.16;;;13.38;78.87
48606;BME280;8482;54.396;18.590;2022-09-09T07:01:15;101356.94;;;13.36;78.60
48606;BME280;8482;54.396;18.590;2022-09-09T07:03:45;101354.25;;;13.36;78.73
48606;BME280;8482;54.396;18.590;2022-09-09T07:06:16;101353.63;;;13.32;78.38
48606;BME280;8482;54.396;18.590;2022-09-09T07:08:57;101353.78;;;13.30;78.32
48606;BME280;8482;54.396;18.590;2022-09-09T07:11:29;101357.25;;;13.31;78.81
48606;BME280;8482;54.396;18.590;2022-09-09T07:13:58;101359.09;;;13.30;79.04
48606;BME280;8482;54.396;18.590;2022-09-09T07:16:25;101367.22;;;13.29;78.86
48606;BME280;8482;54.396;18.590;2022-09-09T07:18:53;101350.63;;;13.25;79.46
48606;BME280;8482;54.396;18.590;2022-09-09T07:21:28;101354.00;;;13.27;79.50
48606;BME280;8482;54.396;18.590;2022-09-09T07:23:54;101354.16;;;13.26;79.96
48606;BME280;8482;54.396;18.590;2022-09-09T07:26:24;101356.56;;;13.29;80.18
48606;BME280;8482;54.396;18.590;2022-09-09T07:28:51;101360.06;;;13.29;80.60
48606;BME280;8482;54.396;18.590;2022-09-09T07:31:20;101355.56;;;13.30;80.47
48606;BME280;8482;54.396;18.590;2022-09-09T07:33:47;101359.25;;;13.29;80.40
48606;BME280;8482;54.396;18.590;2022-09-09T07:38:48;101360.06;;;13.29;79.53
48606;BME280;8482;54.396;18.590;2022-09-09T07:41:36;101360.22;;;13.28;79.50
48606;BME280;8482;54.396;18.590;2022-09-09T07:44:10;101354.16;;;13.26;79.61
48606;BME280;8482;54.396;18.590;2022-09-09T07:46:37;101356.81;;;13.26;79.74
48606;BME280;8482;54.396;18.590;2022-09-09T07:49:04;101365.78;;;13.25;79.85
48606;BME280;8482;54.396;18.590;2022-09-09T07:51:34;101371.25;;;13.23;79.74
48606;BME280;8482;54.396;18.590;2022-09-09T07:54:10;101368.44;;;13.25;80.23
48606;BME280;8482;54.396;18.590;2022-09-09T07:56:37;101368.44;;;13.25;80.08
48606;BME280;8482;54.396;18.590;2022-09-09T07:59:04;101363.25;;;13.23;80.37
48606;BME280;8482;54.396;18.590;2022-09-09T08:01:38;101375.47;;;13.26;80.53
48606;BME280;8482;54.396;18.590;2022-09-09T08:04:12;101373.78;;;13.25;80.60
48606;BME280;8482;54.396;18.590;2022-09-09T08:06:44;101372.91;;;13.24;80.94
48606;BME280;8482;54.396;18.590;2022-09-09T08:09:10;101373.78;;;13.25;80.93
48606;BME280;8482;54.396;18.590;2022-09-09T08:11:37;101371.25;;;13.23;80.92
48606;BME280;8482;54.396;18.590;2022-09-09T08:14:06;101375.47;;;13.26;80.57
48606;BME280;8482;54.396;18.590;2022-09-09T08:16:37;101384.41;;;13.25;80.37
48606;BME280;8482;54.396;18.590;2022-09-09T08:19:04;101372.31;;;13.21;79.81
48606;BME280;8482;54.396;18.590;2022-09-09T08:21:35;101380.06;;;13.24;79.75
48606;BME280;8482;54.396;18.590;2022-09-09T08:24:02;101391.69;;;13.23;79.32
48606;BME280;8482;54.396;18.590;2022-09-09T08:26:35;101384.66;;;13.22;79.13
48606;BME280;8482;54.396;18.590;2022-09-09T08:29:06;101390.72;;;13.24;79.19
48606;BME280;8482;54.396;18.590;2022-09-09T08:31:56;101388.19;;;13.22;79.33
48606;BME280;8482;54.396;18.590;2022-09-09T08:34:24;101402.34;;;13.23;79.48
48606;BME280;8482;54.396;18.590;2022-09-09T08:36:51;101382.97;;;13.21;79.37
48606;BME280;8482;54.396;18.590;2022-09-09T08:39:20;101392.66;;;13.22;79.29
48606;BME280;8482;54.396;18.590;2022-09-09T08:48:31;101390.97;;;13.21;79.39
48606;BME280;8482;54.396;18.590;2022-09-09T08:50:56;101393.63;;;13.21;79.58
48606;BME280;8482;54.396;18.590;2022-09-09T08:53:42;101384.91;;;13.18;79.60
48606;BME280;8482;54.396;18.590;2022-09-09T08:56:24;101396.41;;;13.19;80.07
48606;BME280;8482;54.396;18.590;2022-09-09T08:58:56;101397.97;;;13.22;80.44
48606;BME280;8482;54.396;18.590;2022-09-09T09:04:58;101396.28;;;13.21;80.50
48606;BME280;8482;54.396;18.590;2022-09-09T09:07:55;101396.28;;;13.21;80.25
48606;BME280;8482;54.396;18.590;2022-09-09T09:10:37;101390.22;;;13.18;80.55
48606;BME280;8482;54.396;18.590;2022-09-09T09:13:19;101397.25;;;13.19;80.81
48606;BME280;8482;54.396;18.590;2022-09-09T09:16:06;101393.75;;;13.19;81.11
48606;BME280;8482;54.396;18.590;2022-09-09T09:18:35;101391.81;;;13.21;81.64
48606;BME280;8482;54.396;18.590;2022-09-09T09:23:59;101394.34;;;13.23;81.57
48606;BME280;8482;54.396;18.590;2022-09-09T09:26:35;101398.72;;;13.24;81.86
48606;BME280;8482;54.396;18.590;2022-09-09T09:29:23;101396.03;;;13.24;82.14
48606;BME280;8482;54.396;18.590;2022-09-09T09:31:56;101395.81;;;13.27;82.58
48606;BME280;8482;54.396;18.590;2022-09-09T09:34:25;101394.94;;;13.26;82.52
48606;BME280;8482;54.396;18.590;2022-09-09T09:37:00;101395.69;;;13.28;82.17
48606;BME280;8482;54.396;18.590;2022-09-09T09:39:30;101400.03;;;13.29;82.41
48606;BME280;8482;54.396;18.590;2022-09-09T09:41:56;101406.19;;;13.30;82.49
48606;BME280;8482;54.396;18.590;2022-09-09T09:44:32;101403.44;;;13.31;82.62
48606;BME280;8482;54.396;18.590;2022-09-09T09:47:13;101409.59;;;13.32;82.80
48606;BME280;8482;54.396;18.590;2022-09-09T09:49:58;101406.81;;;13.33;82.75
48606;BME280;8482;54.396;18.590;2022-09-09T09:52:34;101412.97;;;13.34;82.50
48606;BME280;8482;54.396;18.590;2022-09-09T09:55:04;101409.50;;;13.33;82.04
48606;BME280;8482;54.396;18.590;2022-09-09T09:57:38;101402.47;;;13.32;82.75
48606;BME280;8482;54.396;18.590;2022-09-09T10:00:31;101403.06;;;13.36;82.83
48606;BME280;8482;54.396;18.590;2022-09-09T10:03:00;101391.66;;;13.34;82.62
48606;BME280;8482;54.396;18.590;2022-09-09T10:05:29;101401.94;;;13.39;82.84
48606;BME280;8482;54.396;18.590;2022-09-09T10:19:33;101391.81;;;13.44;83.20
48606;BME280;8482;54.396;18.590;2022-09-09T10:22:27;101392.66;;;13.44;82.84
48606;BME280;8482;54.396;18.590;2022-09-09T10:25:43;101397.97;;;13.44;82.70
48606;BME280;8482;54.396;18.590;2022-09-09T10:37:16;101403.78;;;13.49;82.10
48606;BME280;8482;54.396;18.590;2022-09-09T10:39:56;101399.19;;;13.52;82.69
48606;BME280;8482;54.396;18.590;2022-09-09T10:42:31;101398.06;;;13.54;82.78
48606;BME280;8482;54.396;18.590;2022-09-09T10:45:25;101411.31;;;13.56;82.59
48606;BME280;8482;54.396;18.590;2022-09-09T10:51:28;101396.72;;;13.60;82.69
48606;BME280;8482;54.396;18.590;2022-09-09T10:54:23;101407.16;;;13.63;82.46
48606;BME280;8482;54.396;18.590;2022-09-09T10:57:05;101399.28;;;13.61;82.43
48606;BME280;8482;54.396;18.590;2022-09-09T10:59:49;101401.81;;;13.63;81.46
48606;BME280;8482;54.396;18.590;2022-09-09T11:02:27;101393.97;;;13.61;81.43
48606;BME280;8482;54.396;18.590;2022-09-09T11:06:05;101398.91;;;13.66;81.63
48606;BME280;8482;54.396;18.590;2022-09-09T11:08:11;101400.47;;;13.69;81.86
48606;BME280;8482;54.396;18.590;2022-09-09T11:10:56;101400.22;;;13.72;81.70
48606;BME280;8482;54.396;18.590;2022-09-09T11:16:30;101402.66;;;13.75;81.55
48606;BME280;8482;54.396;18.590;2022-09-09T11:21:52;101402.13;;;13.81;82.05
48606;BME280;8482;54.396;18.590;2022-09-09T11:24:38;101413.66;;;13.82;82.60
48606;BME280;8482;54.396;18.590;2022-09-09T11:44:37;101411.78;;;13.93;82.39
48606;BME280;8482;54.396;18.590;2022-09-09T11:47:03;101414.44;;;13.93;83.04
48606;BME280;8482;54.396;18.590;2022-09-09T11:49:41;101420.63;;;13.94;82.66
48606;BME280;8482;54.396;18.590;2022-09-09T11:52:45;101421.47;;;13.94;82.88
48606;BME280;8482;54.396;18.590;2022-09-09T11:55:33;101410.06;;;13.92;82.71
48606;BME280;8482;54.396;18.590;2022-09-09T12:00:39;101411.91;;;13.92;82.61
48606;BME280;8482;54.396;18.590;2022-09-09T12:08:53;101411.19;;;13.90;82.84
48606;BME280;8482;54.396;18.590;2022-09-09T12:11:29;101416.38;;;13.91;82.41
48606;BME280;8482;54.396;18.590;2022-09-09T12:13:59;101413.72;;;13.91;82.21
48606;BME280;8482;54.396;18.590;2022-09-09T12:16:38;101414.56;;;13.92;82.46
48606;BME280;8482;54.396;18.590;2022-09-09T12:19:19;101421.84;;;13.90;82.31
48606;BME280;8482;54.396;18.590;2022-09-09T12:22:09;101419.31;;;13.88;82.44
48606;BME280;8482;54.396;18.590;2022-09-09T12:31:20;101421.03;;;13.89;82.25
48606;BME280;8482;54.396;18.590;2022-09-09T12:33:48;101426.22;;;13.91;82.30
48606;BME280;8482;54.396;18.590;2022-09-09T12:36:20;101423.31;;;13.94;82.39
48606;BME280;8482;54.396;18.590;2022-09-09T12:38:48;101426.81;;;13.94;82.38
48606;BME280;8482;54.396;18.590;2022-09-09T12:41:27;101422.59;;;13.92;82.23
48606;BME280;8482;54.396;18.590;2022-09-09T12:44:05;101417.25;;;13.92;82.46
48606;BME280;8482;54.396;18.590;2022-09-09T12:46:45;101421.59;;;13.93;82.58
48606;BME280;8482;54.396;18.590;2022-09-09T12:49:41;101424.38;;;13.91;83.00
48606;BME280;8482;54.396;18.590;2022-09-09T12:52:50;101413.59;;;13.93;83.00
48606;BME280;8482;54.396;18.590;2022-09-09T12:55:18;101423.31;;;13.94;82.98
48606;BME280;8482;54.396;18.590;2022-09-09T12:57:45;101420.63;;;13.94;83.10
48606;BME280;8482;54.396;18.590;2022-09-09T13:00:21;101422.44;;;13.93;83.42
48606;BME280;8482;54.396;18.590;2022-09-09T13:03:13;101420.50;;;13.95;83.35
48606;BME280;8482;54.396;18.590;2022-09-09T13:05:40;101416.13;;;13.94;83.78
48606;BME280;8482;54.396;18.590;2022-09-09T13:08:14;101421.34;;;13.96;83.59
48606;BME280;8482;54.396;18.590;2022-09-09T13:10:50;101425.69;;;13.97;84.03
48606;BME280;8482;54.396;18.590;2022-09-09T13:13:38;101418.66;;;13.96;84.00
48606;BME280;8482;54.396;18.590;2022-09-09T13:16:17;101419.13;;;14.01;84.49
48606;BME280;8482;54.396;18.590;2022-09-09T13:18:44;101406.06;;;13.98;84.64
48606;BME280;8482;54.396;18.590;2022-09-09T13:21:10;101412.69;;;14.04;84.86
48606;BME280;8482;54.396;18.590;2022-09-09T13:23:37;101415.38;;;14.04;84.63
48606;BME280;8482;54.396;18.590;2022-09-09T13:26:20;101407.25;;;14.05;84.93
48606;BME280;8482;54.396;18.590;2022-09-09T13:28:50;101398.38;;;14.05;85.26
48606;BME280;8482;54.396;18.590;2022-09-09T13:31:28;101393.91;;;14.05;85.09
48606;BME280;8482;54.396;18.590;2022-09-09T13:33:55;101396.44;;;14.07;84.94
48606;BME280;8482;54.396;18.590;2022-09-09T13:36:30;101395.47;;;14.08;84.82
48606;BME280;8482;54.396;18.590;2022-09-09T13:38:59;101388.44;;;14.07;84.87
48606;BME280;8482;54.396;18.590;2022-09-09T13:41:33;101397.16;;;14.09;85.08
48606;BME280;8482;54.396;18.590;2022-09-09T13:44:02;101391.97;;;14.07;84.50
48606;BME280;8482;54.396;18.590;2022-09-09T13:46:41;101387.84;;;14.03;84.67
48606;BME280;8482;54.396;18.590;2022-09-09T13:51:43;101385.91;;;14.05;84.45
48606;BME280;8482;54.396;18.590;2022-09-09T13:54:15;101390.28;;;14.06;85.02
48606;BME280;8482;54.396;18.590;2022-09-09T13:56:42;101389.41;;;14.06;85.12
48606;BME280;8482;54.396;18.590;2022-09-09T13:59:15;101382.28;;;14.06;85.07
48606;BME280;8482;54.396;18.590;2022-09-09T14:01:42;101393.06;;;14.05;85.00
48606;BME280;8482;54.396;18.590;2022-09-09T14:04:10;101387.72;;;14.05;84.90
48606;BME280;8482;54.396;18.590;2022-09-09T14:06:37;101379.00;;;14.03;84.76
48606;BME280;8482;54.396;18.590;2022-09-09T14:09:05;101382.53;;;14.03;85.00
48606;BME280;8482;54.396;18.590;2022-09-09T14:11:31;101375.63;;;14.01;85.05
48606;BME280;8482;54.396;18.590;2022-09-09T14:13:57;101379.84;;;14.03;84.88
48606;BME280;8482;54.396;18.590;2022-09-09T14:16:23;101372.69;;;14.04;84.98
48606;BME280;8482;54.396;18.590;2022-09-09T14:18:49;101384.22;;;14.04;85.16
48606;BME280;8482;54.396;18.590;2022-09-09T14:21:18;101375.50;;;14.02;85.09
48606;BME280;8482;54.396;18.590;2022-09-09T14:23:46;101377.03;;;14.05;85.04
48606;BME280;8482;54.396;18.590;2022-09-09T14:26:15;101377.91;;;14.05;85.22
48606;BME280;8482;54.396;18.590;2022-09-09T14:28:41;101380.56;;;14.05;84.99
48606;BME280;8482;54.396;18.590;2022-09-09T14:31:11;101379.59;;;14.06;85.38
48606;BME280;8482;54.396;18.590;2022-09-09T14:33:39;101371.13;;;14.01;85.10
48606;BME280;8482;54.396;18.590;2022-09-09T14:36:06;101371.84;;;14.03;84.96
48606;BME280;8482;54.396;18.590;2022-09-09T14:38:37;101376.22;;;14.04;85.44
48606;BME280;8482;54.396;18.590;2022-09-09T14:41:17;101387.72;;;14.05;85.50
48606;BME280;8482;54.396;18.590;2022-09-09T14:43:44;101385.91;;;14.05;85.86
48606;BME280;8482;54.396;18.590;2022-09-09T14:46:19;101392.94;;;14.06;85.68
48606;BME280;8482;54.396;18.590;2022-09-09T14:48:46;101389.56;;;14.04;85.92
48606;BME280;8482;54.396;18.590;2022-09-09T14:51:22;101393.06;;;14.05;85.83
48606;BME280;8482;54.396;18.590;2022-09-09T14:53:53;101396.59;;;14.05;85.65
48606;BME280;8482;54.396;18.590;2022-09-09T14:56:24;101400.09;;;14.06;85.65
48606;BME280;8482;54.396;18.590;2022-09-09T14:58:53;101396.84;;;14.02;85.77
48606;BME280;8482;54.396;18.590;2022-09-09T15:01:19;101399.34;;;14.04;85.82
48606;BME280;8482;54.396;18.590;2022-09-09T15:03:56;101391.50;;;14.02;85.60
48606;BME280;8482;54.396;18.590;2022-09-09T15:06:24;101398.38;;;14.05;85.50
48606;BME280;8482;54.396;18.590;2022-09-09T15:08:53;101391.25;;;14.05;85.50
48606;BME280;8482;54.396;18.590;2022-09-09T15:11:21;101385.91;;;14.05;85.82
48606;BME280;8482;54.396;18.590;2022-09-09T15:13:51;101385.03;;;14.05;86.00
48606;BME280;8482;54.396;18.590;2022-09-09T15:16:20;101394.88;;;14.04;85.92